Aviation Digital Data Service (ADDS)

Output produced by METARs form (0841 UTC 20 December 2014)
found at http://www.aviationweather.gov/adds/metars/
 
KTHV 200753Z AUTO 27004KT 10SM OVC038 M02/M06 A3023 RMK AO2 SLP244 T10221061
KTHV 200653Z AUTO 00000KT 10SM BKN039 M03/M07 A3021 RMK AO2 SLP239 T10281067
KTHV 200553Z AUTO 29006KT 10SM CLR M04/M07 A3021 RMK AO2 SLP238 T10391067 10000 21056 58004
KTHV 200453Z AUTO 29003KT 10SM CLR M04/M08 A3022 RMK AO2 SLP240 T10441078 400501044
KTHV 200353Z AUTO 28005KT 10SM CLR M01/M07 A3022 RMK AO2 SLP241 T10111067
KTHV 200253Z AUTO 28005KT 10SM FEW038 M02/M07 A3022 RMK AO2 SLP242 T10171067 51018
KTHV 200153Z AUTO 28005KT 10SM CLR M03/M07 A3021 RMK AO2 SLP236 T10281067
KTHV 200053Z AUTO 00000KT 10SM CLR M03/M07 A3020 RMK AO2 SLP233 T10281067
KTHV 192353Z AUTO 32007KT 10SM CLR 00/M06 A3017 RMK AO2 SLP224 T00001061 10050 21006 51014
KTHV 192253Z AUTO 33003KT 10SM CLR 01/M06 A3017 RMK AO2 SLP222 T00061061
KTHV 192153Z AUTO 33004KT 10SM CLR 02/M06 A3015 RMK AO2 SLP216 T00171056
KTHV 192053Z AUTO 33005KT 10SM SCT041 03/M06 A3013 RMK AO2 SLP209 T00331056 53012
KTHV 191953Z AUTO 31009KT 10SM CLR 04/M05 A3010 RMK AO2 SLP198 T00441050
KTHV 191853Z AUTO 30012G16KT 10SM BKN039 04/M05 A3009 RMK AO2 SLP197 T00391050
KTHV 191753Z AUTO 29012KT 10SM OVC035 05/M04 A3009 RMK AO2 SLP197 T00501044 10050 20011 57009
KTHV 191653Z AUTO 29010KT 10SM OVC033 03/M04 A3010 RMK AO2 SLP200 T00331044
KTHV 191553Z AUTO 30011KT 10SM OVC033 03/M04 A3011 RMK AO2 SLP204 T00281044
KTHV 191453Z AUTO 31011KT 10SM OVC032 02/M04 A3012 RMK AO2 SLP206 T00221044 51012
KTHV 191403Z AUTO 29008KT 10SM OVC030 02/M04 A3012 RMK AO2 T00171044
KTHV 191353Z AUTO 30008KT 10SM OVC029 02/M04 A3012 RMK AO2 SLP206 T00171044
KTHV 191253Z AUTO 29005KT 10SM OVC029 01/M04 A3010 RMK AO2 SLP200 T00111044
KTHV 191153Z AUTO 29008KT 10SM OVC028 01/M04 A3008 RMK AO2 SLP194 T00111044 10011 20006 53004
KTHV 191053Z AUTO 29007KT 10SM OVC027 01/M04 A3007 RMK AO2 SLP191 T00111044
KTHV 190953Z AUTO 28005KT 10SM OVC027 01/M04 A3007 RMK AO2 SLP188 T00061044
KTHV 190853Z AUTO 30005KT 10SM OVC026 01/M04 A3007 RMK AO2 SLP190 T00111044 50004
KTHV 190753Z AUTO 29007KT 10SM OVC025 01/M04 A3007 RMK AO2 SLP191 T00111044
KTHV 190653Z AUTO 30007KT 10SM OVC026 01/M04 A3007 RMK AO2 SLP188 T00111044
KTHV 190553Z AUTO 29005KT 10SM OVC027 01/M04 A3006 RMK AO2 SLP186 T00111044 10017 20011 58004
KTHV 190453Z AUTO 30007KT 10SM OVC028 01/M04 A3007 RMK AO2 SLP189 T00111044 400280006
KTHV 190353Z AUTO 31005KT 10SM OVC028 01/M04 A3007 RMK AO2 SLP190 T00111044
KTHV 190253Z AUTO 30005KT 10SM OVC029 01/M04 A3007 RMK AO2 SLP190 T00111044 58000
KTHV 190244Z AUTO 30006KT 10SM OVC029 01/M04 A3008 RMK AO2 T00111044
KTHV 190153Z AUTO 30005KT 10SM OVC030 02/M04 A3008 RMK AO2 SLP193 T00171044
KTHV 190053Z AUTO 28007KT 10SM OVC031 01/M04 A3008 RMK AO2 SLP193 T00111044
KTHV 182353Z AUTO 27004KT 10SM OVC032 01/M04 A3007 RMK AO2 SLP191 T00111044 10022 20011 53003
KTHV 182253Z AUTO 30005KT 10SM OVC031 02/M05 A3007 RMK AO2 SLP190 T00171050
KTHV 182153Z AUTO 31010KT 10SM OVC031 02/M05 A3006 RMK AO2 SLP187 T00171050
KTHV 182053Z AUTO 31011KT 10SM OVC032 02/M05 A3007 RMK AO2 SLP188 T00171050 56008